Kotlas, Russia
Current Conditions -  °F | °C
As of 8:30 PM on Sunday 23 Nov 2014 (Local Time) from UUYY Reporting Station
Overcast Overcast  
Wind Chill: -8°   Ceiling: 20000
Heat Index: -8°   Visibility: 5mi
Dew Point: -13°   Wind: 0mph
Humidity: 77%   Direction: NA
Pressure: 30.74"   Gusts: NA
Location:  61.26°N, 46.66°E
Report Text: UUYY 231730Z 00000MPS 8000 FEW066 OVC200 M22/M25 Q1041 TEMPO2000 BR FU 0181//51 RMK QFE771/1028
Loading
Personal Weather Stations






























Interactive Weather Map New forecast layout! Learn more

10-Day Weather Forecast

Advertisements
Track Severe Weather on mobile